createdAt,value
2022-11-12T00:00:56.162Z,8.90
2022-11-12T00:04:00.361Z,13.10
2022-11-12T00:07:04.059Z,10.20
2022-11-12T00:10:08.018Z,8.73
2022-11-12T00:13:12.323Z,9.50
2022-11-12T00:16:16.903Z,9.13
2022-11-12T00:19:21.231Z,8.77
2022-11-12T00:22:24.917Z,7.88
2022-11-12T00:25:28.892Z,9.23
2022-11-12T00:28:37.724Z,9.05
2022-11-12T00:31:42.480Z,9.50
2022-11-12T00:34:46.466Z,9.07
2022-11-12T00:37:54.107Z,9.35
2022-11-12T00:41:01.340Z,8.68
2022-11-12T00:44:05.139Z,11.15
2022-11-12T00:47:09.142Z,7.13
2022-11-12T00:50:13.365Z,9.45
2022-11-12T00:53:17.877Z,11.80
2022-11-12T00:56:21.871Z,9.55
2022-11-12T00:59:25.595Z,8.35
2022-11-12T01:02:29.273Z,8.17
2022-11-12T01:05:33.797Z,8.43
2022-11-12T01:08:38.196Z,9.20
2022-11-12T01:11:42.486Z,8.57
2022-11-12T01:14:46.031Z,7.90
2022-11-12T01:17:50.114Z,7.57
2022-11-12T01:20:55.370Z,7.88
2022-11-12T01:24:00.546Z,9.27
2022-11-12T01:27:04.538Z,8.48
2022-11-12T01:30:08.553Z,7.90
2022-11-12T01:33:12.644Z,8.70
2022-11-12T01:36:17.328Z,8.38
2022-11-12T01:39:21.532Z,9.70
2022-11-12T01:42:29.792Z,7.60
2022-11-12T01:45:33.548Z,7.80
2022-11-12T01:48:52.072Z,8.63
2022-11-12T01:51:58.238Z,8.25
2022-11-12T01:55:07.478Z,8.05
2022-11-12T01:58:13.010Z,9.00
2022-11-12T02:01:17.288Z,7.25
2022-11-12T02:04:21.679Z,7.00
2022-11-12T02:07:25.863Z,8.07
2022-11-12T02:10:29.910Z,6.50
2022-11-12T02:13:52.471Z,6.82
2022-11-12T02:16:56.523Z,8.02
2022-11-12T02:20:00.822Z,7.10
2022-11-12T02:23:06.222Z,8.23
2022-11-12T02:26:10.111Z,7.25
2022-11-12T02:29:14.304Z,9.05
2022-11-12T02:32:18.031Z,8.20
2022-11-12T02:35:23.184Z,7.73
2022-11-12T02:38:27.576Z,7.45
2022-11-12T02:41:32.206Z,7.07
2022-11-12T02:44:36.140Z,7.47
2022-11-12T02:47:40.077Z,7.30
2022-11-12T02:50:43.870Z,6.30
2022-11-12T02:53:47.820Z,6.85
2022-11-12T02:56:51.668Z,6.35
2022-11-12T02:59:55.364Z,6.50
2022-11-12T03:02:59.552Z,7.20
2022-11-12T03:06:03.838Z,7.80
2022-11-12T03:09:08.203Z,7.10
2022-11-12T03:12:12.136Z,6.88
2022-11-12T03:15:17.651Z,7.30
2022-11-12T03:18:21.968Z,6.68
2022-11-12T03:21:25.948Z,7.10
2022-11-12T03:24:29.809Z,6.63
2022-11-12T03:27:33.474Z,6.95
2022-11-12T03:30:38.216Z,6.63
2022-11-12T03:33:42.418Z,7.03
2022-11-12T03:36:46.430Z,6.77
2022-11-12T03:39:50.226Z,6.65
2022-11-12T03:42:54.295Z,7.30
2022-11-12T03:45:59.108Z,7.45
2022-11-12T03:49:03.479Z,6.55
2022-11-12T03:52:07.931Z,6.27
2022-11-12T03:55:12.234Z,6.35
2022-11-12T03:58:16.085Z,6.65
2022-11-12T04:01:20.146Z,7.05
2022-11-12T04:04:44.143Z,5.80
2022-11-12T04:08:26.429Z,6.27
2022-11-12T04:11:30.650Z,6.68
2022-11-12T04:14:34.517Z,7.38
2022-11-12T04:17:57.333Z,6.20
2022-11-12T04:21:20.078Z,7.22
2022-11-12T04:24:42.669Z,5.83
2022-11-12T04:27:46.823Z,6.65
2022-11-12T04:30:50.719Z,7.72
2022-11-12T04:33:54.907Z,6.05
2022-11-12T04:36:59.556Z,6.15
2022-11-12T04:40:24.084Z,7.40
2022-11-12T04:43:47.163Z,6.07
2022-11-12T04:46:51.326Z,6.75
2022-11-12T04:49:55.248Z,6.45
2022-11-12T04:52:59.472Z,6.30
2022-11-12T04:56:03.352Z,6.13
2022-11-12T04:59:07.304Z,5.97
2022-11-12T05:02:11.248Z,6.38
2022-11-12T05:05:15.678Z,6.40
2022-11-12T05:08:19.694Z,5.85
2022-11-12T05:11:23.663Z,6.33
2022-11-12T05:14:27.455Z,5.82
2022-11-12T05:17:31.510Z,6.22
2022-11-12T05:20:35.681Z,6.10
2022-11-12T05:23:39.462Z,6.22
2022-11-12T05:26:43.297Z,5.83
2022-11-12T05:29:47.258Z,6.10
2022-11-12T05:32:51.234Z,6.18
2022-11-12T05:35:58.224Z,6.30
2022-11-12T05:39:02.113Z,6.57
2022-11-12T05:42:13.063Z,5.60
2022-11-12T05:45:17.400Z,5.85
2022-11-12T05:48:24.461Z,6.05
2022-11-12T05:51:28.726Z,5.80
2022-11-12T05:54:32.782Z,7.13
2022-11-12T05:57:36.838Z,5.43
2022-11-12T06:00:40.885Z,5.20
2022-11-12T06:03:44.995Z,6.28
2022-11-12T06:06:49.245Z,5.70
2022-11-12T06:09:53.208Z,6.88
2022-11-12T06:12:57.018Z,5.50
2022-11-12T06:16:00.798Z,11.27
2022-11-12T06:19:05.068Z,5.82
2022-11-12T06:22:08.853Z,6.07
2022-11-12T06:25:13.033Z,5.95
2022-11-12T06:28:16.924Z,5.90
2022-11-12T06:31:21.069Z,6.20
2022-11-12T06:34:24.732Z,5.80
2022-11-12T06:37:28.865Z,7.63
2022-11-12T06:40:32.844Z,6.97
2022-11-12T06:43:37.119Z,5.63
2022-11-12T06:46:40.824Z,6.15
2022-11-12T06:49:44.764Z,6.55
2022-11-12T06:52:48.758Z,5.93
2022-11-12T06:55:52.481Z,5.90
2022-11-12T06:58:56.687Z,6.83
2022-11-12T07:02:00.823Z,5.90
2022-11-12T07:05:04.907Z,6.88
2022-11-12T07:08:08.684Z,5.80
2022-11-12T07:11:13.108Z,6.00
2022-11-12T07:14:17.104Z,5.77
2022-11-12T07:17:20.950Z,6.57
2022-11-12T07:20:25.018Z,6.07
2022-11-12T07:23:30.323Z,6.53
2022-11-12T07:26:34.052Z,5.72
2022-11-12T07:29:47.416Z,5.73
2022-11-12T07:32:52.333Z,5.95
2022-11-12T07:35:57.143Z,7.65
2022-11-12T07:39:01.142Z,8.18
2022-11-12T07:42:05.030Z,7.20
2022-11-12T07:45:09.102Z,8.27
2022-11-12T07:48:13.196Z,7.35
2022-11-12T07:51:21.730Z,7.20
2022-11-12T07:54:25.522Z,6.15
2022-11-12T07:57:32.173Z,7.32
2022-11-12T08:00:36.303Z,7.10
2022-11-12T08:03:40.046Z,8.07
2022-11-12T08:06:44.125Z,8.50
2022-11-12T08:09:47.802Z,8.02
2022-11-12T08:12:51.639Z,6.45
2022-11-12T08:15:57.669Z,10.03
2022-11-12T08:19:01.706Z,7.53
2022-11-12T08:22:05.795Z,8.45
2022-11-12T08:25:09.408Z,7.68
2022-11-12T08:28:13.146Z,7.25
2022-11-12T08:31:18.551Z,7.23
2022-11-12T08:34:22.903Z,9.20
2022-11-12T08:37:26.814Z,6.20
2022-11-12T08:40:31.988Z,5.93
2022-11-12T08:43:36.003Z,7.60
2022-11-12T08:46:40.159Z,8.03
2022-11-12T08:49:48.080Z,6.35
2022-11-12T08:52:52.579Z,7.32
2022-11-12T08:55:57.388Z,9.00
2022-11-12T08:59:05.037Z,9.93
2022-11-12T09:02:14.279Z,9.20
2022-11-12T09:05:18.074Z,8.65
2022-11-12T09:08:23.589Z,8.43
2022-11-12T09:11:27.926Z,7.60
2022-11-12T09:14:32.165Z,9.75
2022-11-12T09:17:36.014Z,11.53
2022-11-12T09:20:39.663Z,8.00
2022-11-12T09:23:43.373Z,12.18
2022-11-12T09:26:48.618Z,8.75
2022-11-12T09:29:53.643Z,9.50
2022-11-12T09:32:58.652Z,8.07
2022-11-12T09:36:03.166Z,7.68
2022-11-12T09:39:07.189Z,9.57
2022-11-12T09:42:14.250Z,8.32
2022-11-12T09:45:23.739Z,8.90
2022-11-12T09:48:32.415Z,9.83
2022-11-12T09:51:39.311Z,10.20
2022-11-12T09:54:43.480Z,8.32
2022-11-12T09:57:47.524Z,15.45
2022-11-12T10:00:56.092Z,8.27
2022-11-12T10:04:06.394Z,15.87
2022-11-12T10:07:30.466Z,10.07
2022-11-12T10:10:46.995Z,12.80
2022-11-12T10:13:53.596Z,12.00
2022-11-12T10:17:08.633Z,9.85
2022-11-12T10:20:12.926Z,10.90
2022-11-12T10:23:32.754Z,10.50
2022-11-12T10:26:40.188Z,10.48
2022-11-12T10:29:50.358Z,10.50
2022-11-12T10:32:55.310Z,8.07
2022-11-12T10:36:22.870Z,7.13
2022-11-12T10:39:33.201Z,12.55
2022-11-12T10:42:55.061Z,8.02
2022-11-12T10:46:12.615Z,10.77
2022-11-12T10:49:16.877Z,12.18
2022-11-12T10:52:21.814Z,6.93
2022-11-12T10:55:28.343Z,13.77
2022-11-12T10:58:32.121Z,10.10
2022-11-12T11:01:36.273Z,16.13
2022-11-12T11:04:42.599Z,12.10
2022-11-12T11:07:49.445Z,13.20
2022-11-12T11:11:10.298Z,13.27
2022-11-12T11:14:23.510Z,9.23
2022-11-12T11:17:27.187Z,10.85
2022-11-12T11:20:36.002Z,12.07
2022-11-12T11:23:58.901Z,11.17
2022-11-12T11:27:21.577Z,11.75
2022-11-12T11:30:25.748Z,9.77
2022-11-12T11:33:39.726Z,7.07
2022-11-12T11:36:54.843Z,12.13
2022-11-12T11:40:08.720Z,7.57
2022-11-12T11:43:22.179Z,12.30
2022-11-12T11:46:35.207Z,10.05
2022-11-12T11:49:59.127Z,11.02
2022-11-12T11:53:18.533Z,22.00
2022-11-12T11:56:24.431Z,18.27
2022-11-12T11:59:33.072Z,17.73
2022-11-12T12:03:05.978Z,18.90
2022-11-12T12:06:16.229Z,15.73
2022-11-12T12:09:31.006Z,16.67
2022-11-12T12:12:53.741Z,14.97
2022-11-12T12:16:10.453Z,14.60
2022-11-12T12:19:30.008Z,12.43
2022-11-12T12:22:43.466Z,15.68
2022-11-12T12:25:49.244Z,11.32
2022-11-12T12:29:10.865Z,12.57
2022-11-12T12:32:29.482Z,10.50
2022-11-12T12:35:56.633Z,13.35
2022-11-12T12:39:16.035Z,15.45
2022-11-12T12:42:29.297Z,10.48
2022-11-12T12:45:39.920Z,10.00
2022-11-12T12:48:44.821Z,14.07
2022-11-12T12:51:54.494Z,13.68
2022-11-12T12:54:59.816Z,12.80
2022-11-12T12:58:03.942Z,12.35
2022-11-12T13:01:11.244Z,11.43
2022-11-12T13:04:15.033Z,14.30
2022-11-12T13:07:38.166Z,11.65
2022-11-12T13:10:42.206Z,14.18
2022-11-12T13:13:46.144Z,9.07
2022-11-12T13:16:51.231Z,10.33
2022-11-12T13:19:55.151Z,10.38
2022-11-12T13:22:59.168Z,9.98
2022-11-12T13:26:22.078Z,6.32
2022-11-12T13:29:28.866Z,7.88
2022-11-12T13:32:34.168Z,7.13
2022-11-12T13:35:39.695Z,7.10
2022-11-12T13:38:44.406Z,6.78
2022-11-12T13:42:13.782Z,6.68
2022-11-12T13:45:19.658Z,6.32
2022-11-12T13:48:23.846Z,6.93
2022-11-12T13:51:48.237Z,7.82
2022-11-12T13:55:06.768Z,6.38
2022-11-12T13:58:40.279Z,5.97
2022-11-12T14:01:44.629Z,6.40
2022-11-12T14:04:48.598Z,8.03
2022-11-12T14:08:06.057Z,5.97
2022-11-12T14:11:09.931Z,6.93
2022-11-12T14:14:22.678Z,7.90
2022-11-12T14:17:38.831Z,9.98
2022-11-12T14:20:42.504Z,12.27
2022-11-12T14:23:47.773Z,12.98
2022-11-12T14:26:51.407Z,11.93
2022-11-12T14:30:05.414Z,12.57
2022-11-12T14:33:10.747Z,12.70
2022-11-12T14:36:15.515Z,14.33
2022-11-12T14:39:19.079Z,12.57
2022-11-12T14:42:23.107Z,11.10
2022-11-12T14:45:31.196Z,11.00
2022-11-12T14:48:46.202Z,10.43
2022-11-12T14:51:53.825Z,10.63
2022-11-12T14:54:59.576Z,7.82
2022-11-12T14:58:04.393Z,8.45
2022-11-12T15:02:13.966Z,7.60
2022-11-12T15:04:54.848Z,8.70
2022-11-12T15:07:58.683Z,8.67
2022-11-12T15:11:21.730Z,9.13
2022-11-12T15:14:26.350Z,6.75
2022-11-12T15:17:32.209Z,9.00
2022-11-12T15:20:36.423Z,8.32
2022-11-12T15:23:50.697Z,10.17
2022-11-12T15:26:55.500Z,8.93
2022-11-12T15:30:16.107Z,7.22
2022-11-12T15:33:23.290Z,9.63
2022-11-12T15:36:27.106Z,8.07
2022-11-12T15:39:32.645Z,13.53
2022-11-12T15:42:37.804Z,12.55
2022-11-12T15:45:41.350Z,10.93
2022-11-12T15:48:45.319Z,7.65
2022-11-12T15:51:49.134Z,9.63
2022-11-12T15:54:53.160Z,10.57
2022-11-12T15:57:57.291Z,8.88
2022-11-12T16:01:01.454Z,7.75
2022-11-12T16:04:05.342Z,7.07
2022-11-12T16:07:09.393Z,7.38
2022-11-12T16:10:14.083Z,9.47
2022-11-12T16:13:22.515Z,11.75
2022-11-12T16:16:26.372Z,9.50
2022-11-12T16:19:34.106Z,11.50
2022-11-12T16:22:38.377Z,20.48
2022-11-12T16:25:43.065Z,19.27
2022-11-12T16:28:47.216Z,20.45
2022-11-12T16:31:50.951Z,13.05
2022-11-12T16:35:00.831Z,14.68
2022-11-12T16:38:12.144Z,14.20
2022-11-12T16:41:16.449Z,14.47
2022-11-12T16:44:20.786Z,11.85
2022-11-12T16:47:24.695Z,14.05
2022-11-12T16:50:28.544Z,13.65
2022-11-12T16:53:32.516Z,11.70
2022-11-12T16:56:36.625Z,18.03
2022-11-12T16:59:40.704Z,13.27
2022-11-12T17:02:49.352Z,16.00
2022-11-12T17:05:56.304Z,14.32
2022-11-12T17:09:00.166Z,11.90
2022-11-12T17:12:04.530Z,11.53
2022-11-12T17:15:08.903Z,13.95
2022-11-12T17:18:12.638Z,15.10
2022-11-12T17:21:18.258Z,14.63
2022-11-12T17:24:22.444Z,12.60
2022-11-12T17:27:27.393Z,14.77
2022-11-12T17:30:31.636Z,12.18
2022-11-12T17:33:37.715Z,11.02
2022-11-12T17:36:43.703Z,13.15
2022-11-12T17:39:48.394Z,11.82
2022-11-12T17:42:52.178Z,30.80
2022-11-12T17:45:56.675Z,16.55
2022-11-12T17:49:00.727Z,13.35
2022-11-12T17:52:04.375Z,14.75
2022-11-12T17:55:08.576Z,11.00
2022-11-12T17:58:12.742Z,13.33
2022-11-12T18:01:26.552Z,11.85
2022-11-12T18:04:31.125Z,15.68
2022-11-12T18:07:35.490Z,15.35
2022-11-12T18:10:39.451Z,20.73
2022-11-12T18:13:43.286Z,13.27
2022-11-12T18:16:47.292Z,12.65
2022-11-12T18:19:51.346Z,11.88
2022-11-12T18:22:55.519Z,14.20
2022-11-12T18:26:00.368Z,14.18
2022-11-12T18:29:04.128Z,11.40
2022-11-12T18:32:08.192Z,12.32
2022-11-12T18:35:12.144Z,11.30
2022-11-12T18:38:16.016Z,10.85
2022-11-12T18:41:25.671Z,12.30
2022-11-12T18:44:29.603Z,13.73
2022-11-12T18:47:33.322Z,11.65
2022-11-12T18:50:37.469Z,11.45
2022-11-12T18:53:42.852Z,10.90
2022-11-12T18:56:47.889Z,11.98
2022-11-12T18:59:54.869Z,11.03
2022-11-12T19:02:59.191Z,11.18
2022-11-12T19:06:04.632Z,9.30
2022-11-12T19:09:11.740Z,9.43
2022-11-12T19:12:15.737Z,10.68
2022-11-12T19:15:25.529Z,12.50
2022-11-12T19:18:30.824Z,12.05
2022-11-12T19:21:34.748Z,11.77
2022-11-12T19:24:38.750Z,11.68
2022-11-12T19:27:42.822Z,10.45
2022-11-12T19:30:46.605Z,11.47
2022-11-12T19:33:50.776Z,10.45
2022-11-12T19:37:11.959Z,12.27
2022-11-12T19:40:19.203Z,11.85
2022-11-12T19:43:24.513Z,10.50
2022-11-12T19:46:28.384Z,12.43
2022-11-12T19:49:32.231Z,12.10
2022-11-12T19:52:36.233Z,11.35
2022-11-12T19:55:40.172Z,16.15
2022-11-12T19:58:45.479Z,19.27
2022-11-12T20:01:49.260Z,18.33
2022-11-12T20:04:53.187Z,22.05
2022-11-12T20:07:56.795Z,21.65
2022-11-12T20:11:00.856Z,25.42
2022-11-12T20:14:05.134Z,25.08
2022-11-12T20:17:09.463Z,28.40
2022-11-12T20:20:13.581Z,29.05
2022-11-12T20:23:17.712Z,30.75
2022-11-12T20:26:22.049Z,30.23
2022-11-12T20:29:26.305Z,30.70
2022-11-12T20:32:29.973Z,25.57
2022-11-12T20:35:37.059Z,26.67
2022-11-12T20:38:42.285Z,26.33
2022-11-12T20:41:46.540Z,30.70
2022-11-12T20:44:50.846Z,28.85
2022-11-12T20:47:55.847Z,27.73
2022-11-12T20:51:22.663Z,28.55
2022-11-12T20:54:27.821Z,26.63
2022-11-12T20:57:31.868Z,27.90
2022-11-12T21:00:35.732Z,30.08
2022-11-12T21:03:40.341Z,31.03
2022-11-12T21:06:44.368Z,27.80
2022-11-12T21:09:48.559Z,25.23
2022-11-12T21:12:52.318Z,25.45
2022-11-12T21:15:56.196Z,28.30
2022-11-12T21:19:01.479Z,27.27
2022-11-12T21:22:05.899Z,28.10
2022-11-12T21:25:10.131Z,29.70
2022-11-12T21:28:14.063Z,27.30
2022-11-12T21:31:22.577Z,28.67
2022-11-12T21:34:26.855Z,28.27
2022-11-12T21:37:30.983Z,25.42
2022-11-12T21:40:35.108Z,27.88
2022-11-12T21:43:40.534Z,27.88
2022-11-12T21:46:44.378Z,25.35
2022-11-12T21:49:48.341Z,24.53
2022-11-12T21:52:52.311Z,24.50
2022-11-12T21:56:01.005Z,27.55
2022-11-12T21:59:05.161Z,24.48
2022-11-12T22:02:12.472Z,25.02
2022-11-12T22:05:16.679Z,23.83
2022-11-12T22:08:20.426Z,26.50
2022-11-12T22:11:25.422Z,26.42
2022-11-12T22:14:29.547Z,24.77
2022-11-12T22:17:33.801Z,23.42
2022-11-12T22:20:37.546Z,22.57
2022-11-12T22:23:41.375Z,22.05
2022-11-12T22:26:45.283Z,21.70
2022-11-12T22:29:49.080Z,22.10
2022-11-12T22:32:52.899Z,19.63
2022-11-12T22:35:56.822Z,22.50
2022-11-12T22:39:00.874Z,23.67
2022-11-12T22:42:04.882Z,19.60
2022-11-12T22:45:09.664Z,19.90
2022-11-12T22:48:13.733Z,22.17
2022-11-12T22:51:18.755Z,22.97
2022-11-12T22:54:22.956Z,21.90
2022-11-12T22:57:27.016Z,18.42
2022-11-12T23:00:32.112Z,20.67
2022-11-12T23:03:36.327Z,22.52
2022-11-12T23:06:40.368Z,21.90
2022-11-12T23:09:44.179Z,18.33
2022-11-12T23:12:48.359Z,18.67
2022-11-12T23:15:52.336Z,21.63
2022-11-12T23:18:56.388Z,18.00
2022-11-12T23:22:04.002Z,19.50
2022-11-12T23:25:11.842Z,23.20
2022-11-12T23:28:15.418Z,19.95
2022-11-12T23:31:20.653Z,21.30
2022-11-12T23:34:25.190Z,20.77
2022-11-12T23:37:29.144Z,20.37
2022-11-12T23:40:33.016Z,21.08
2022-11-12T23:43:36.909Z,16.45
2022-11-12T23:46:41.066Z,17.63
2022-11-12T23:49:45.056Z,19.73
2022-11-12T23:52:49.085Z,21.23
2022-11-12T23:55:53.323Z,17.10
2022-11-12T23:58:57.334Z,18.13
